createdAt,value
2019-05-26T00:02:11.258Z,29.52
2019-05-26T00:04:46.312Z,24.33
2019-05-26T00:07:30.319Z,22.17
2019-05-26T00:09:57.982Z,24.07
2019-05-26T00:12:33.053Z,17.48
2019-05-26T00:15:07.334Z,23.97
2019-05-26T00:17:43.036Z,26.53
2019-05-26T00:20:18.836Z,22.40
2019-05-26T00:22:52.436Z,33.47
2019-05-26T00:25:26.127Z,39.60
2019-05-26T00:28:01.125Z,43.53
2019-05-26T00:30:34.753Z,38.57
2019-05-26T00:33:09.402Z,47.70
2019-05-26T00:35:44.820Z,52.67
2019-05-26T00:38:18.615Z,47.17
2019-05-26T00:40:52.397Z,42.70
2019-05-26T00:43:27.631Z,49.77
2019-05-26T00:46:02.794Z,56.00
2019-05-26T00:48:36.432Z,49.57
2019-05-26T00:51:10.402Z,57.20
2019-05-26T00:53:44.146Z,54.23
2019-05-26T00:56:19.193Z,55.40
2019-05-26T00:58:53.107Z,48.07
2019-05-26T01:01:28.658Z,48.75
2019-05-26T01:04:03.623Z,43.20
2019-05-26T01:06:38.979Z,42.63
2019-05-26T01:09:14.627Z,45.20
2019-05-26T01:11:48.071Z,37.73
2019-05-26T01:14:21.760Z,44.40
2019-05-26T01:16:56.601Z,43.28
2019-05-26T01:19:31.681Z,47.98
2019-05-26T01:22:05.280Z,47.53
2019-05-26T01:24:40.734Z,50.30
2019-05-26T01:27:14.634Z,42.10
2019-05-26T01:29:49.365Z,45.20
2019-05-26T01:32:23.313Z,44.33
2019-05-26T01:34:56.960Z,41.05
2019-05-26T01:37:32.335Z,55.03
2019-05-26T01:40:08.179Z,38.20
2019-05-26T01:42:43.442Z,39.93
2019-05-26T01:45:16.926Z,47.57
2019-05-26T01:47:50.886Z,43.40
2019-05-26T01:50:24.568Z,45.17
2019-05-26T01:52:58.226Z,46.40
2019-05-26T01:55:33.448Z,43.73
2019-05-26T01:58:07.743Z,47.43
2019-05-26T02:00:41.375Z,49.37
2019-05-26T02:03:16.651Z,51.17
2019-05-26T02:05:51.727Z,46.80
2019-05-26T02:08:38.752Z,46.70
2019-05-26T02:11:01.816Z,53.13
2019-05-26T02:13:52.326Z,48.30
2019-05-26T02:19:03.289Z,47.47
2019-05-26T02:21:38.725Z,51.73
2019-05-26T02:24:33.931Z,48.37
2019-05-26T02:27:09.268Z,45.63
2019-05-26T02:29:44.229Z,51.07
2019-05-26T02:32:18.205Z,47.53
2019-05-26T02:34:52.041Z,45.40
2019-05-26T02:37:25.540Z,48.33
2019-05-26T02:40:00.599Z,46.10
2019-05-26T02:42:35.748Z,52.40
2019-05-26T02:45:17.491Z,50.80
2019-05-26T02:47:51.154Z,50.43
2019-05-26T02:50:26.705Z,53.37
2019-05-26T02:53:00.744Z,54.53
2019-05-26T02:55:34.564Z,49.93
2019-05-26T02:58:10.269Z,52.77
2019-05-26T03:00:49.348Z,54.23
2019-05-26T03:03:23.100Z,52.13
2019-05-26T03:05:59.459Z,53.90
2019-05-26T03:08:34.784Z,55.95
2019-05-26T03:11:10.045Z,55.05
2019-05-26T03:13:46.971Z,51.40
2019-05-26T03:16:24.306Z,55.07
2019-05-26T03:19:00.626Z,57.40
2019-05-26T03:21:36.281Z,56.40
2019-05-26T03:24:12.373Z,49.77
2019-05-26T03:26:46.150Z,52.30
2019-05-26T03:29:19.609Z,54.73
2019-05-26T03:31:53.408Z,54.23
2019-05-26T03:34:27.240Z,52.17
2019-05-26T03:37:03.007Z,53.05
2019-05-26T03:39:44.762Z,50.87
2019-05-26T03:42:11.633Z,56.50
2019-05-26T03:44:47.294Z,53.37
2019-05-26T03:47:22.500Z,50.80
2019-05-26T03:49:57.508Z,57.20
2019-05-26T03:52:31.174Z,55.60
2019-05-26T03:55:05.150Z,54.97
2019-05-26T03:57:38.708Z,61.87
2019-05-26T04:00:13.069Z,60.37
2019-05-26T04:02:46.673Z,63.23
2019-05-26T04:05:21.633Z,62.90
2019-05-26T04:07:55.202Z,70.55
2019-05-26T04:10:30.940Z,66.87
2019-05-26T04:13:04.729Z,70.12
2019-05-26T04:15:38.388Z,71.80
2019-05-26T04:18:13.501Z,68.83
2019-05-26T04:20:48.085Z,65.38
2019-05-26T04:23:23.320Z,68.13
2019-05-26T04:25:58.511Z,68.52
2019-05-26T04:28:33.615Z,63.45
2019-05-26T04:31:07.455Z,73.17
2019-05-26T04:33:42.308Z,77.30
2019-05-26T04:36:16.190Z,80.40
2019-05-26T04:38:50.025Z,77.53
2019-05-26T04:41:23.795Z,80.50
2019-05-26T04:43:57.804Z,83.90
2019-05-26T04:46:31.199Z,82.77
2019-05-26T04:49:05.068Z,77.77
2019-05-26T04:51:38.711Z,78.53
2019-05-26T04:54:13.766Z,80.60
2019-05-26T04:56:47.571Z,93.50
2019-05-26T04:59:22.789Z,113.27
2019-05-26T05:01:57.630Z,105.43
2019-05-26T05:04:31.476Z,99.37
2019-05-26T05:07:06.760Z,104.83
2019-05-26T05:09:40.239Z,95.40
2019-05-26T05:12:13.981Z,100.43
2019-05-26T05:14:48.902Z,96.77
2019-05-26T05:17:22.646Z,91.60
2019-05-26T05:19:56.229Z,94.37
2019-05-26T05:22:31.544Z,89.17
2019-05-26T05:25:14.167Z,100.27
2019-05-26T05:27:42.785Z,83.57
2019-05-26T05:30:16.580Z,94.80
2019-05-26T05:32:52.266Z,83.07
2019-05-26T05:35:27.420Z,89.87
2019-05-26T05:38:01.250Z,94.80
2019-05-26T05:40:35.312Z,93.87
2019-05-26T05:43:10.686Z,101.00
2019-05-26T05:45:46.511Z,111.17
2019-05-26T05:48:19.988Z,110.83
2019-05-26T05:50:53.702Z,158.07
2019-05-26T05:53:34.753Z,193.37
2019-05-26T05:56:10.698Z,213.30
2019-05-26T05:58:45.889Z,236.23
2019-05-26T06:01:21.566Z,241.17
2019-05-26T06:03:56.690Z,235.40
2019-05-26T06:06:30.697Z,232.55
2019-05-26T06:09:08.209Z,232.07
2019-05-26T06:14:19.914Z,253.30
2019-05-26T06:16:55.041Z,227.33
2019-05-26T06:19:28.590Z,207.40
2019-05-26T06:22:03.675Z,202.82
2019-05-26T06:24:38.945Z,189.37
2019-05-26T06:27:12.508Z,177.33
2019-05-26T06:29:58.406Z,182.20
2019-05-26T06:32:21.298Z,179.17
2019-05-26T06:34:56.780Z,162.60
2019-05-26T06:37:30.530Z,151.37
2019-05-26T06:40:04.107Z,147.40
2019-05-26T06:42:37.808Z,135.60
2019-05-26T06:45:11.929Z,129.90
2019-05-26T06:47:45.328Z,136.03
2019-05-26T06:50:20.557Z,125.50
2019-05-26T06:52:56.029Z,122.20
2019-05-26T06:55:29.642Z,112.23
2019-05-26T06:58:03.389Z,114.60
2019-05-26T07:00:37.616Z,114.47
2019-05-26T07:03:13.289Z,125.53
2019-05-26T07:05:47.049Z,136.57
2019-05-26T07:08:22.105Z,138.90
2019-05-26T07:10:55.884Z,131.60
2019-05-26T07:13:29.800Z,124.13
2019-05-26T07:16:03.950Z,105.50
2019-05-26T07:18:37.442Z,101.87
2019-05-26T07:21:11.005Z,104.77
2019-05-26T07:23:44.454Z,85.87
2019-05-26T07:26:18.152Z,84.27
2019-05-26T07:28:53.019Z,79.67
2019-05-26T07:31:29.106Z,79.50
2019-05-26T07:34:04.494Z,85.17
2019-05-26T07:36:38.486Z,86.27
2019-05-26T07:39:12.570Z,83.10
2019-05-26T07:41:47.628Z,77.87
2019-05-26T07:44:21.408Z,81.10
2019-05-26T07:46:54.951Z,87.20
2019-05-26T07:49:30.023Z,91.37
2019-05-26T07:52:03.854Z,84.00
2019-05-26T07:54:39.033Z,82.47
2019-05-26T07:57:14.367Z,88.37
2019-05-26T07:59:49.505Z,90.55
2019-05-26T08:02:23.482Z,89.10
2019-05-26T08:05:00.208Z,90.85
2019-05-26T08:07:33.959Z,91.65
2019-05-26T08:10:10.116Z,86.57
2019-05-26T08:12:45.380Z,94.33
2019-05-26T08:15:20.572Z,91.00
2019-05-26T08:17:57.431Z,84.33
2019-05-26T08:20:31.496Z,83.73
2019-05-26T08:23:09.715Z,90.03
2019-05-26T08:25:44.847Z,77.13
2019-05-26T08:28:20.035Z,75.97
2019-05-26T08:30:55.359Z,76.67
2019-05-26T08:33:29.471Z,69.60
2019-05-26T08:36:03.113Z,67.57
2019-05-26T08:38:38.507Z,70.47
2019-05-26T08:41:14.958Z,68.83
2019-05-26T08:43:48.915Z,60.48
2019-05-26T08:46:22.569Z,63.93
2019-05-26T08:48:56.329Z,68.93
2019-05-26T08:51:30.271Z,67.32
2019-05-26T08:54:05.328Z,61.87
2019-05-26T08:56:40.595Z,61.97
2019-05-26T08:59:15.704Z,69.40
2019-05-26T09:01:50.940Z,72.30
2019-05-26T09:04:24.658Z,71.90
2019-05-26T09:06:58.306Z,63.17
2019-05-26T09:09:33.982Z,62.57
2019-05-26T09:12:07.684Z,64.35
2019-05-26T09:14:41.438Z,72.53
2019-05-26T09:17:17.037Z,68.40
2019-05-26T09:19:50.822Z,55.27
2019-05-26T09:22:25.034Z,58.43
2019-05-26T09:24:59.239Z,59.93
2019-05-26T09:27:34.574Z,43.83
2019-05-26T09:30:09.780Z,50.30
2019-05-26T09:32:43.537Z,54.83
2019-05-26T09:35:20.000Z,50.80
2019-05-26T09:37:53.770Z,58.93
2019-05-26T09:40:29.315Z,51.77
2019-05-26T09:43:15.705Z,51.33
2019-05-26T09:45:39.367Z,52.13
2019-05-26T09:48:13.831Z,47.65
2019-05-26T09:50:49.151Z,42.83
2019-05-26T09:53:24.234Z,44.73
2019-05-26T09:55:58.005Z,47.20
2019-05-26T09:58:31.896Z,49.93
2019-05-26T10:01:05.747Z,51.20
2019-05-26T10:03:39.613Z,53.73
2019-05-26T10:06:13.412Z,50.23
2019-05-26T10:08:47.379Z,51.37
2019-05-26T10:11:20.960Z,61.23
2019-05-26T10:13:54.741Z,58.07
2019-05-26T10:16:28.739Z,55.83
2019-05-26T10:19:02.437Z,59.37
2019-05-26T10:21:36.164Z,51.80
2019-05-26T10:24:12.919Z,54.70
2019-05-26T10:26:45.165Z,51.20
2019-05-26T10:29:19.274Z,53.67
2019-05-26T10:31:53.003Z,51.53
2019-05-26T10:34:28.488Z,50.40
2019-05-26T10:37:02.227Z,50.60
2019-05-26T10:39:38.594Z,49.50
2019-05-26T10:42:13.531Z,38.90
2019-05-26T10:44:46.990Z,35.40
2019-05-26T10:47:20.769Z,38.80
2019-05-26T10:49:56.746Z,33.73
2019-05-26T10:52:31.763Z,32.17
2019-05-26T10:55:06.865Z,34.03
2019-05-26T10:57:40.817Z,33.55
2019-05-26T11:00:14.775Z,35.53
2019-05-26T11:02:48.335Z,32.57
2019-05-26T11:05:22.327Z,33.90
2019-05-26T11:07:57.471Z,21.90
2019-05-26T11:10:31.248Z,20.80
2019-05-26T11:13:06.742Z,24.37
2019-05-26T11:15:40.636Z,24.07
2019-05-26T11:18:34.170Z,30.60
2019-05-26T11:21:08.199Z,28.33
2019-05-26T11:23:42.173Z,28.87
2019-05-26T11:26:15.621Z,30.77
2019-05-26T11:28:49.594Z,31.63
2019-05-26T11:31:23.909Z,36.37
2019-05-26T11:33:57.601Z,33.93
2019-05-26T11:36:32.608Z,37.03
2019-05-26T11:39:09.341Z,38.13
2019-05-26T11:41:54.661Z,40.93
2019-05-26T11:44:28.035Z,41.13
2019-05-26T11:47:01.040Z,44.17
2019-05-26T11:49:34.725Z,54.05
2019-05-26T11:52:10.106Z,52.33
2019-05-26T11:54:43.895Z,49.77
2019-05-26T11:57:18.080Z,52.88
2019-05-26T11:59:53.151Z,50.47
2019-05-26T12:02:27.483Z,51.63
2019-05-26T12:05:01.511Z,50.00
2019-05-26T12:07:39.485Z,35.20
2019-05-26T12:10:14.757Z,51.45
2019-05-26T12:12:48.655Z,32.50
2019-05-26T12:15:22.516Z,27.37
2019-05-26T12:17:56.382Z,25.00
2019-05-26T12:20:30.604Z,34.48
2019-05-26T12:23:06.855Z,29.07
2019-05-26T12:25:40.489Z,18.77
2019-05-26T12:28:14.484Z,31.57
2019-05-26T12:30:50.021Z,38.53
2019-05-26T12:33:23.861Z,24.47
2019-05-26T12:35:57.742Z,14.73
2019-05-26T12:38:31.615Z,12.70
2019-05-26T12:41:06.517Z,17.90
2019-05-26T12:43:40.386Z,22.55
2019-05-26T12:46:14.435Z,12.93
2019-05-26T12:48:49.879Z,22.98
2019-05-26T12:51:25.536Z,10.20
2019-05-26T12:54:01.037Z,9.17
2019-05-26T12:56:35.110Z,10.88
2019-05-26T12:59:09.152Z,8.88
2019-05-26T13:01:42.938Z,9.63
2019-05-26T13:04:16.556Z,7.60
2019-05-26T13:06:50.792Z,9.40
2019-05-26T13:09:25.493Z,8.70
2019-05-26T13:11:59.370Z,12.53
2019-05-26T13:14:32.948Z,12.53
2019-05-26T13:17:07.465Z,12.77
2019-05-26T13:19:43.067Z,31.70
2019-05-26T13:22:16.528Z,17.60
2019-05-26T13:24:52.597Z,15.50
2019-05-26T13:27:26.650Z,18.87
2019-05-26T13:30:02.988Z,26.97
2019-05-26T13:32:37.111Z,11.97
2019-05-26T13:35:13.121Z,6.12
2019-05-26T13:37:46.774Z,15.50
2019-05-26T13:40:22.596Z,12.67
2019-05-26T13:42:58.087Z,7.40
2019-05-26T13:45:33.892Z,12.10
2019-05-26T13:48:08.467Z,11.70
2019-05-26T13:50:43.714Z,10.58
2019-05-26T13:53:17.505Z,8.23
2019-05-26T13:55:51.368Z,6.60
2019-05-26T13:58:27.540Z,7.37
2019-05-26T14:01:01.402Z,7.20
2019-05-26T14:03:35.274Z,8.80
2019-05-26T14:06:10.805Z,7.40
2019-05-26T14:08:46.253Z,9.70
2019-05-26T14:11:20.097Z,9.33
2019-05-26T14:13:53.913Z,15.13
2019-05-26T14:16:31.642Z,16.43
2019-05-26T14:19:06.887Z,14.70
2019-05-26T14:21:41.866Z,14.63
2019-05-26T14:24:15.739Z,11.57
2019-05-26T14:26:49.535Z,10.73
2019-05-26T14:29:23.077Z,10.15
2019-05-26T14:31:57.450Z,13.57
2019-05-26T14:34:32.405Z,16.20
2019-05-26T14:37:05.986Z,12.50
2019-05-26T14:39:41.060Z,11.17
2019-05-26T14:42:15.737Z,8.83
2019-05-26T14:44:52.011Z,8.78
2019-05-26T14:47:25.899Z,7.13
2019-05-26T14:50:01.279Z,7.37
2019-05-26T14:52:35.024Z,5.90
2019-05-26T14:55:11.111Z,4.23
2019-05-26T14:57:45.202Z,5.53
2019-05-26T15:00:21.422Z,7.40
2019-05-26T15:02:56.450Z,3.43
2019-05-26T15:05:30.565Z,5.83
2019-05-26T15:08:04.170Z,3.83
2019-05-26T15:10:37.873Z,5.17
2019-05-26T15:13:11.845Z,4.72
2019-05-26T15:15:46.833Z,5.27
2019-05-26T15:18:21.999Z,3.53
2019-05-26T15:20:57.135Z,7.17
2019-05-26T15:23:32.125Z,6.03
2019-05-26T15:26:05.839Z,7.50
2019-05-26T15:28:39.489Z,4.17
2019-05-26T15:31:14.298Z,4.47
2019-05-26T15:33:48.491Z,5.10
2019-05-26T15:36:22.214Z,4.47
2019-05-26T15:38:57.084Z,2.90
2019-05-26T15:41:31.890Z,5.58
2019-05-26T15:44:07.516Z,7.13
2019-05-26T15:46:43.134Z,9.03
2019-05-26T15:49:18.174Z,9.10
2019-05-26T15:51:52.065Z,12.67
2019-05-26T15:54:26.106Z,12.15
2019-05-26T15:57:01.293Z,8.50
2019-05-26T15:59:36.506Z,7.08
2019-05-26T16:02:10.622Z,5.10
2019-05-26T16:04:45.860Z,2.95
2019-05-26T16:07:20.806Z,5.05
2019-05-26T16:09:54.747Z,3.77
2019-05-26T16:12:28.392Z,3.60
2019-05-26T16:15:01.878Z,7.50
2019-05-26T16:17:38.550Z,4.33
2019-05-26T16:20:13.413Z,3.57
2019-05-26T16:22:48.595Z,7.30
2019-05-26T16:25:22.627Z,8.60
2019-05-26T16:27:56.543Z,4.93
2019-05-26T16:30:31.694Z,5.10
2019-05-26T16:33:05.304Z,7.33
2019-05-26T16:35:40.503Z,4.50
2019-05-26T16:38:15.757Z,6.70
2019-05-26T16:40:51.140Z,6.10
2019-05-26T16:43:24.938Z,4.63
2019-05-26T16:45:59.852Z,2.93
2019-05-26T16:48:34.785Z,3.97
2019-05-26T16:51:10.435Z,3.42
2019-05-26T16:53:45.757Z,3.47
2019-05-26T16:56:21.556Z,3.27
2019-05-26T16:58:56.459Z,2.43
2019-05-26T17:01:32.113Z,6.37
2019-05-26T17:04:05.893Z,3.03
2019-05-26T17:06:41.464Z,1.60
2019-05-26T17:09:15.239Z,2.77
2019-05-26T17:11:50.565Z,7.30
2019-05-26T17:14:26.080Z,2.83
2019-05-26T17:17:13.571Z,2.97
2019-05-26T17:19:35.006Z,2.97
2019-05-26T17:22:10.589Z,5.60
2019-05-26T17:24:44.196Z,2.47
2019-05-26T17:27:19.710Z,2.67
2019-05-26T17:29:53.642Z,4.27
2019-05-26T17:32:27.594Z,4.10
2019-05-26T17:35:01.247Z,2.60
2019-05-26T17:37:36.326Z,5.37
2019-05-26T17:40:10.345Z,4.00
2019-05-26T17:42:44.344Z,5.30
2019-05-26T17:45:19.734Z,1.92
2019-05-26T17:47:53.324Z,2.90
2019-05-26T17:50:27.116Z,1.80
2019-05-26T17:53:02.050Z,1.87
2019-05-26T17:55:37.178Z,1.70
2019-05-26T17:58:12.735Z,2.90
2019-05-26T18:00:46.566Z,1.70
2019-05-26T18:03:22.022Z,1.72
2019-05-26T18:05:57.596Z,2.63
2019-05-26T18:08:36.244Z,1.27
2019-05-26T18:11:09.698Z,1.93
2019-05-26T18:14:02.885Z,1.17
2019-05-26T18:16:39.307Z,1.80
2019-05-26T18:19:14.420Z,3.50
2019-05-26T18:21:47.950Z,5.10
2019-05-26T18:24:23.237Z,6.73
2019-05-26T18:26:58.262Z,4.07
2019-05-26T18:29:31.857Z,3.20
2019-05-26T18:32:05.443Z,3.07
2019-05-26T18:34:40.529Z,3.00
2019-05-26T18:37:16.083Z,1.60
2019-05-26T18:39:51.339Z,1.50
2019-05-26T18:42:25.053Z,4.70
2019-05-26T18:44:59.819Z,1.67
2019-05-26T18:47:34.976Z,2.13
2019-05-26T18:50:10.662Z,1.93
2019-05-26T18:52:45.576Z,1.02
2019-05-26T18:55:19.436Z,1.67
2019-05-26T18:57:54.649Z,2.50
2019-05-26T19:00:30.868Z,1.27
2019-05-26T19:03:04.690Z,1.63
2019-05-26T19:05:39.606Z,3.23
2019-05-26T19:08:14.376Z,2.10
2019-05-26T19:10:47.948Z,1.60
2019-05-26T19:13:22.651Z,4.93
2019-05-26T19:15:56.055Z,4.57
2019-05-26T19:18:29.523Z,4.17
2019-05-26T19:21:03.037Z,3.47
2019-05-26T19:23:37.668Z,3.93
2019-05-26T19:26:12.811Z,2.90
2019-05-26T19:28:48.176Z,3.13
2019-05-26T19:31:23.225Z,1.60
2019-05-26T19:33:58.237Z,1.00
2019-05-26T19:36:33.693Z,1.27
2019-05-26T19:39:09.881Z,2.20
2019-05-26T19:41:44.696Z,1.60
2019-05-26T19:44:18.240Z,3.63
2019-05-26T19:46:52.983Z,5.57
2019-05-26T19:49:27.580Z,5.03
2019-05-26T19:52:02.596Z,4.97
2019-05-26T19:54:37.754Z,8.10
2019-05-26T19:57:13.174Z,10.37
2019-05-26T19:59:48.161Z,9.07
2019-05-26T20:02:42.518Z,4.27
2019-05-26T20:05:17.982Z,3.27
2019-05-26T20:07:52.832Z,6.83
2019-05-26T20:10:27.783Z,4.13
2019-05-26T20:13:02.830Z,2.67
2019-05-26T20:15:37.743Z,3.20
2019-05-26T20:18:11.345Z,2.13
2019-05-26T20:20:46.121Z,3.87
2019-05-26T20:23:19.770Z,2.90
2019-05-26T20:25:54.520Z,1.33
2019-05-26T20:28:47.578Z,1.50
2019-05-26T20:31:21.246Z,4.87
2019-05-26T20:33:54.915Z,4.10
2019-05-26T20:36:28.671Z,1.17
2019-05-26T20:39:06.111Z,1.87
2019-05-26T20:41:47.490Z,1.98
2019-05-26T20:44:24.649Z,1.82
2019-05-26T20:47:02.226Z,1.87
2019-05-26T20:49:45.264Z,1.90
2019-05-26T20:52:13.153Z,4.97
2019-05-26T20:54:46.628Z,1.22
2019-05-26T20:57:21.426Z,2.12
2019-05-26T20:59:56.653Z,2.53
2019-05-26T21:02:29.932Z,1.53
2019-05-26T21:05:04.737Z,3.47
2019-05-26T21:07:38.931Z,5.37
2019-05-26T21:10:14.868Z,3.63
2019-05-26T21:12:49.441Z,3.07
2019-05-26T21:15:24.420Z,2.40
2019-05-26T21:17:59.268Z,5.10
2019-05-26T21:20:33.158Z,3.22
2019-05-26T21:23:08.313Z,2.40
2019-05-26T21:25:43.107Z,1.40
2019-05-26T21:28:18.510Z,3.07
2019-05-26T21:30:53.322Z,3.07
2019-05-26T21:33:28.763Z,4.17
2019-05-26T21:36:03.523Z,2.47
2019-05-26T21:38:38.296Z,2.80
2019-05-26T21:41:11.920Z,3.87
2019-05-26T21:43:47.181Z,2.40
2019-05-26T21:46:22.529Z,3.85
2019-05-26T21:48:57.253Z,2.07
2019-05-26T21:51:31.223Z,4.20
2019-05-26T21:54:05.185Z,4.10
2019-05-26T21:56:40.032Z,4.87
2019-05-26T21:59:14.915Z,3.50
2019-05-26T22:01:48.698Z,3.42
2019-05-26T22:04:23.947Z,3.47
2019-05-26T22:06:58.832Z,2.73
2019-05-26T22:09:33.224Z,2.57
2019-05-26T22:12:14.215Z,2.73
2019-05-26T22:14:48.989Z,3.87
2019-05-26T22:17:22.476Z,4.50
2019-05-26T22:19:57.927Z,3.93
2019-05-26T22:22:31.411Z,4.60
2019-05-26T22:25:25.673Z,3.40
2019-05-26T22:28:00.132Z,3.23
2019-05-26T22:30:34.624Z,2.72
2019-05-26T22:33:08.377Z,2.53
2019-05-26T22:35:43.493Z,3.40
2019-05-26T22:38:18.119Z,3.23
2019-05-26T22:40:51.732Z,5.80
2019-05-26T22:43:28.341Z,7.50
2019-05-26T22:46:03.154Z,7.80
2019-05-26T22:48:38.189Z,4.57
2019-05-26T22:51:13.053Z,4.17
2019-05-26T22:53:46.810Z,4.93
2019-05-26T22:56:21.715Z,2.63
2019-05-26T22:58:56.862Z,4.10
2019-05-26T23:01:32.257Z,4.90
2019-05-26T23:04:07.730Z,2.90
2019-05-26T23:06:41.530Z,5.13
2019-05-26T23:09:16.663Z,6.07
2019-05-26T23:11:51.480Z,5.80
2019-05-26T23:14:26.341Z,5.33
2019-05-26T23:16:59.996Z,4.90
2019-05-26T23:19:35.215Z,4.93
2019-05-26T23:22:08.881Z,5.60
2019-05-26T23:24:42.586Z,4.53
2019-05-26T23:27:17.309Z,5.07
2019-05-26T23:29:52.435Z,4.40
2019-05-26T23:32:26.065Z,5.27
2019-05-26T23:35:01.287Z,4.55
2019-05-26T23:37:34.790Z,6.80
2019-05-26T23:40:12.638Z,5.20
2019-05-26T23:42:47.675Z,6.37
2019-05-26T23:45:22.751Z,4.47
2019-05-26T23:47:56.298Z,5.97
2019-05-26T23:50:29.863Z,6.53
2019-05-26T23:53:04.985Z,7.93
2019-05-26T23:55:40.479Z,10.63
2019-05-26T23:58:15.563Z,4.67
